SAZB/BHI METAR and TAF weather

Enter ICAO airport designator
Station Type Date Time Source
SAZB METAR 2020/04/01 14:10 UTC NOAA

SAZB 011410Z 23008KT 9000 OVC005 16/16 Q1016


Station Type Date Time Source
SAZB Decoded METAR 2020/04/01 14:10 UTC NOAA

Bahia Blanca Aerodrome, Argentina (SAZB) 38-44S 062-10W 83M
Apr 01, 2020 - 10:10 AM EDT / 2020.04.01 1410 UTC
Wind: from the SW (230 degrees) at 9 MPH (8 KT):0
Visibility: 5 mile(s):0
Sky conditions: overcast
Temperature: 60 F (16 C)
Dew Point: 60 F (16 C)
Relative Humidity: 100%
Pressure (altimeter): 30.00 in. Hg (1016 hPa)
ob: SAZB 011410Z 23008KT 9000 OVC005 16/16 Q1016
cycle: 14

Station Type Date Time Source
SAZB TAF 2020/02/24 12:12 UTC NOAA

TAF SAZB 241100Z 2412/2512 33015G25KT 9999 FEW045 BKN100 TX28/2518Z TN12/2510Z
TEMPO 2412/2414 8000 SHRA SCT040CB BKN050
BECMG 2414/2416 27015G25KT 9999 SCT045 BKN100
BECMG 2419/2422 18015KT CAVOK
BECMG 2504/2506 08010KT
BECMG 2508/2510 02003KT 5000 BR NSC

Example: see airport list